Time;durP1;ratioP1;P1;durP2;ratioP2;P2;SDS_P1;SDS_P2;PMS_P1;PMS_P2;Temp;Humidity;BMP_temperature;BMP_pressure;BME280_temperature;BME280_humidity;BME280_pressure;Samples;Min_cycle;Max_cycle;Signal;HPM_P1;HPM_P2
2022/11/28 00:01:33;;;;;;;12.38;8.13;;;10.50;84.60;;;;;;5094257;28;20398;-90
2022/11/28 00:04:06;;;;;;;10.80;8.00;;;10.50;84.40;;;;;;5094514;28;20040;-92
2022/11/28 00:06:36;;;;;;;10.82;7.50;;;10.50;84.70;;;;;;5094638;28;20035;-92
2022/11/28 00:09:03;;;;;;;9.63;7.63;;;10.50;84.60;;;;;;5094636;28;20040;-93
2022/11/28 00:11:28;;;;;;;11.02;8.10;;;10.50;84.60;;;;;;5094657;28;20485;-93
2022/11/28 00:13:54;;;;;;;11.63;7.88;;;10.50;84.60;;;;;;5076364;28;20055;-91
2022/11/28 00:16:23;;;;;;;12.77;7.80;;;10.50;84.40;;;;;;5094437;28;20048;-89
2022/11/28 00:18:51;;;;;;;10.85;8.02;;;10.50;84.60;;;;;;5093388;28;20048;-92
2022/11/28 00:21:17;;;;;;;12.15;8.05;;;10.50;84.60;;;;;;5077210;28;20413;-91
2022/11/28 00:23:44;;;;;;;14.55;8.32;;;10.50;84.60;;;;;;5076750;28;20044;-92
2022/11/28 00:26:16;;;;;;;11.18;8.30;;;10.60;84.60;;;;;;5093516;28;20040;-90
2022/11/28 00:28:42;;;;;;;10.35;8.18;;;10.50;84.50;;;;;;5076991;28;20044;-91
2022/11/28 00:31:15;;;;;;;11.05;8.27;;;10.60;84.40;;;;;;5093299;28;20040;-92
2022/11/28 00:33:41;;;;;;;12.00;7.80;;;10.60;84.50;;;;;;5093530;28;20117;-91
2022/11/28 00:36:07;;;;;;;10.15;7.57;;;10.60;84.30;;;;;;5093107;28;20083;-91
2022/11/28 00:38:33;;;;;;;11.88;8.52;;;10.70;84.30;;;;;;5093188;28;20051;-92
2022/11/28 00:41:08;;;;;;;11.65;8.10;;;10.70;84.30;;;;;;5076386;28;20044;-92
2022/11/28 00:43:34;;;;;;;11.32;8.15;;;10.60;84.30;;;;;;5092461;28;20036;-91
2022/11/28 00:46:01;;;;;;;11.43;8.43;;;10.70;84.20;;;;;;5093246;28;20040;-91
2022/11/28 00:48:27;;;;;;;10.90;7.90;;;10.70;84.30;;;;;;5092495;28;20043;-90
2022/11/28 00:50:53;;;;;;;11.68;8.05;;;10.60;84.20;;;;;;5092618;28;20040;-91
2022/11/28 00:53:19;;;;;;;13.15;9.02;;;10.70;84.30;;;;;;5092652;28;20040;-90
2022/11/28 00:55:45;;;;;;;14.63;8.23;;;10.70;84.20;;;;;;5075438;28;20066;-90
2022/11/28 00:58:10;;;;;;;10.98;8.30;;;10.70;84.20;;;;;;5075272;28;20044;-91
2022/11/28 01:00:36;;;;;;;12.85;8.07;;;10.70;84.00;;;;;;5074921;28;20048;-91
2022/11/28 01:03:02;;;;;;;10.75;8.05;;;10.70;84.00;;;;;;5091958;28;20051;-91
2022/11/28 01:05:28;;;;;;;11.80;7.82;;;10.70;83.90;;;;;;5091923;28;20043;-91
2022/11/28 01:07:53;;;;;;;12.98;8.48;;;10.70;83.90;;;;;;5075105;28;20164;-92
2022/11/28 01:10:19;;;;;;;10.65;7.85;;;10.70;84.00;;;;;;5075082;28;20079;-90
2022/11/28 01:12:45;;;;;;;12.18;8.32;;;10.80;83.90;;;;;;5092663;28;20055;-91
2022/11/28 01:15:12;;;;;;;9.10;7.25;;;10.80;83.80;;;;;;5091590;28;20059;-91
2022/11/28 01:17:37;;;;;;;12.10;8.00;;;10.70;83.80;;;;;;5091350;28;20086;-91
2022/11/28 01:20:06;;;;;;;11.88;8.55;;;10.80;83.80;;;;;;5092164;28;20086;-91
2022/11/28 01:22:31;;;;;;;11.93;8.48;;;10.80;83.80;;;;;;5091623;28;20409;-91
2022/11/28 01:24:57;;;;;;;12.40;8.43;;;10.80;83.70;;;;;;5075100;28;20040;-91
2022/11/28 01:27:22;;;;;;;10.27;7.88;;;10.80;83.80;;;;;;5074557;28;20040;-90
2022/11/28 01:29:48;;;;;;;10.60;8.02;;;10.80;83.80;;;;;;5091332;28;20050;-90
2022/11/28 01:32:14;;;;;;;11.52;8.32;;;10.80;83.80;;;;;;5091632;28;20039;-91
2022/11/28 01:34:39;;;;;;;13.82;9.70;;;10.80;83.80;;;;;;5091906;28;20043;-91
2022/11/28 01:37:05;;;;;;;10.20;8.57;;;10.80;83.80;;;;;;5091955;28;20120;-91
2022/11/28 01:39:31;;;;;;;10.98;8.27;;;10.80;83.70;;;;;;5091705;28;20051;-91
2022/11/28 01:41:56;;;;;;;14.70;8.90;;;10.80;83.70;;;;;;5091307;28;20058;-90
2022/11/28 01:44:22;;;;;;;12.70;9.10;;;10.80;83.70;;;;;;5074717;28;20454;-91
2022/11/28 01:46:47;;;;;;;11.10;8.05;;;10.80;83.70;;;;;;5074799;28;20043;-91
2022/11/28 01:49:34;;;;;;;11.45;8.85;;;10.80;83.80;;;;;;5091367;28;20048;-91
2022/11/28 01:52:12;;;;;;;13.48;8.63;;;10.70;84.00;;;;;;5074791;28;20082;-91
2022/11/28 01:54:41;;;;;;;11.85;9.50;;;10.70;83.80;;;;;;5091870;28;20382;-91
2022/11/28 01:57:16;;;;;;;11.98;8.90;;;10.80;83.80;;;;;;5075399;28;20044;-91
2022/11/28 02:00:03;;;;;;;12.93;8.88;;;10.70;83.80;;;;;;5074985;28;20036;-92
2022/11/28 02:02:35;;;;;;;13.00;8.93;;;10.70;83.90;;;;;;5091392;28;20139;-91
2022/11/28 02:05:01;;;;;;;14.27;9.07;;;10.80;83.70;;;;;;5074842;28;20051;-91
2022/11/28 02:07:27;;;;;;;11.82;8.90;;;10.90;83.70;;;;;;5091685;28;21032;-90
2022/11/28 02:09:52;;;;;;;11.25;8.75;;;10.90;83.70;;;;;;5074753;28;20127;-91
2022/11/28 02:12:27;;;;;;;11.65;8.50;;;10.90;83.70;;;;;;5091557;28;20444;-91
2022/11/28 02:15:10;;;;;;;14.00;9.05;;;10.80;83.70;;;;;;5074333;28;20056;-91
2022/11/28 02:17:59;;;;;;;10.38;8.07;;;10.80;83.80;;;;;;5074458;28;20122;-91
2022/11/28 02:21:17;;;;;;;10.75;8.93;;;10.80;83.70;;;;;;5091323;28;20060;-92
2022/11/28 02:24:30;;;;;;;13.98;8.60;;;10.80;84.00;;;;;;5041010;28;20136;-92
2022/11/28 02:27:19;;;;;;;11.27;8.27;;;10.80;83.70;;;;;;5091877;28;20047;-91
2022/11/28 02:30:07;;;;;;;11.60;8.90;;;10.90;83.50;;;;;;5075171;28;20100;-91
2022/11/28 02:32:50;;;;;;;10.13;8.02;;;10.80;83.70;;;;;;5091248;28;20040;-90
2022/11/28 02:35:51;;;;;;;12.10;8.65;;;10.80;83.50;;;;;;5074326;28;20139;-91
2022/11/28 02:38:21;;;;;;;12.38;9.10;;;10.80;83.60;;;;;;5077439;28;20059;-89
2022/11/28 02:41:08;;;;;;;11.05;8.57;;;10.80;83.50;;;;;;5077961;28;20047;-92
2022/11/28 02:43:47;;;;;;;11.20;8.77;;;10.90;83.50;;;;;;5077915;28;20497;-92
2022/11/28 02:46:16;;;;;;;11.52;8.98;;;10.80;83.50;;;;;;5094507;28;20048;-91
2022/11/28 02:49:05;;;;;;;15.48;8.63;;;10.90;83.50;;;;;;5078001;28;20048;-89
2022/11/28 02:51:50;;;;;;;12.32;9.38;;;10.80;83.80;;;;;;5077988;28;20136;-91
2022/11/28 02:54:18;;;;;;;11.95;9.07;;;10.80;83.70;;;;;;5077703;28;20044;-90
2022/11/28 02:56:52;;;;;;;12.73;8.38;;;10.90;83.40;;;;;;5077907;28;20461;-92
2022/11/28 02:59:38;;;;;;;10.13;8.55;;;10.80;83.50;;;;;;5094502;28;20048;-92
2022/11/28 03:02:22;;;;;;;13.80;9.57;;;10.80;83.90;;;;;;5063802;28;20051;-92
2022/11/28 03:05:06;;;;;;;11.73;8.80;;;10.80;83.60;;;;;;5077585;28;20089;-91
2022/11/28 03:07:46;;;;;;;12.73;8.57;;;10.80;83.80;;;;;;5077510;28;20132;-91
2022/11/28 03:10:44;;;;;;;13.00;9.23;;;10.70;83.80;;;;;;5094273;28;20081;-91
2022/11/28 03:13:45;;;;;;;11.90;8.85;;;10.80;84.00;;;;;;5093746;28;20512;-91
2022/11/28 03:16:28;;;;;;;12.73;9.23;;;10.80;83.60;;;;;;5077103;28;20052;-91
2022/11/28 03:19:08;;;;;;;12.82;8.98;;;10.80;83.60;;;;;;5094185;28;20502;-91
2022/11/28 03:21:37;;;;;;;11.02;9.25;;;10.90;83.50;;;;;;5077502;28;20051;-92
2022/11/28 03:24:16;;;;;;;14.65;9.70;;;10.90;83.50;;;;;;5077230;28;20082;-91
2022/11/28 03:27:01;;;;;;;13.75;9.63;;;10.80;83.60;;;;;;5078150;28;20512;-91
2022/11/28 03:29:36;;;;;;;13.85;9.65;;;10.80;83.70;;;;;;5094526;28;20205;-92
2022/11/28 03:32:10;;;;;;;12.18;9.73;;;10.90;83.60;;;;;;5077413;28;20067;-91
2022/11/28 03:34:44;;;;;;;13.55;10.10;;;10.90;83.60;;;;;;5094037;28;20382;-91
2022/11/28 03:37:16;;;;;;;11.98;9.05;;;10.90;83.70;;;;;;5093856;28;20484;-91
2022/11/28 03:39:47;;;;;;;12.68;9.50;;;10.90;83.80;;;;;;5093775;28;20044;-90
2022/11/28 03:42:23;;;;;;;13.10;10.38;;;10.90;83.90;;;;;;5077165;28;20100;-91
2022/11/28 03:44:53;;;;;;;12.32;9.90;;;10.90;84.00;;;;;;5076258;28;20048;-92
2022/11/28 03:47:20;;;;;;;12.32;8.85;;;10.90;83.90;;;;;;5077380;28;20040;-92
2022/11/28 03:49:53;;;;;;;12.35;10.05;;;11.00;83.80;;;;;;5076986;28;20093;-92
2022/11/28 03:52:28;;;;;;;11.77;9.60;;;11.00;83.80;;;;;;5094098;28;20052;-91
2022/11/28 03:55:03;;;;;;;13.57;9.85;;;11.00;83.80;;;;;;5077067;28;20086;-91
2022/11/28 03:57:38;;;;;;;16.02;9.93;;;11.00;83.70;;;;;;5093207;28;20090;-90
2022/11/28 04:00:09;;;;;;;14.95;10.23;;;11.00;83.90;;;;;;5093732;28;20051;-91
2022/11/28 04:03:01;;;;;;;14.25;10.52;;;11.10;83.80;;;;;;5076602;28;20039;-93
2022/11/28 04:05:39;;;;;;;14.57;11.30;;;11.00;84.00;;;;;;5093347;28;20051;-91
2022/11/28 04:08:30;;;;;;;15.57;11.77;;;11.10;83.80;;;;;;5093147;28;20048;-91
2022/11/28 04:11:10;;;;;;;17.20;11.57;;;11.00;84.20;;;;;;5093356;28;20059;-92
2022/11/28 04:13:55;;;;;;;14.88;12.13;;;11.10;84.00;;;;;;5093465;28;20051;-90
2022/11/28 04:16:29;;;;;;;18.52;12.88;;;11.00;84.20;;;;;;5093547;28;20052;-90
2022/11/28 04:19:27;;;;;;;14.57;11.82;;;11.20;84.20;;;;;;5075570;28;20170;-92
2022/11/28 04:21:59;;;;;;;16.48;12.00;;;11.10;84.30;;;;;;5044760;28;20379;-91
2022/11/28 04:24:32;;;;;;;19.23;13.55;;;11.20;84.10;;;;;;5055468;28;20508;-89
2022/11/28 04:27:01;;;;;;;19.02;12.90;;;11.20;84.30;;;;;;5055775;28;20081;-89
2022/11/28 04:29:33;;;;;;;17.52;13.25;;;11.20;84.50;;;;;;5071901;28;20052;-89
2022/11/28 04:32:00;;;;;;;18.52;14.02;;;11.20;84.60;;;;;;5072135;28;20501;-89
2022/11/28 04:34:28;;;;;;;20.33;14.65;;;11.20;84.60;;;;;;5055510;28;20040;-89
2022/11/28 04:36:56;;;;;;;18.20;14.25;;;11.20;84.70;;;;;;5072289;28;20044;-89
2022/11/28 04:39:24;;;;;;;20.33;14.73;;;11.20;84.80;;;;;;5071709;28;20041;-88
2022/11/28 04:42:14;;;;;;;23.60;15.13;;;11.20;84.90;;;;;;5071761;28;20098;-90
2022/11/28 04:44:45;;;;;;;19.70;14.38;;;11.20;85.00;;;;;;5054493;28;20057;-90
2022/11/28 04:47:11;;;;;;;23.48;16.48;;;11.20;84.80;;;;;;5054469;28;20051;-86
2022/11/28 04:49:37;;;;;;;21.95;16.33;;;11.30;84.90;;;;;;5055423;28;20052;-89
2022/11/28 04:52:35;;;;;;;23.48;17.60;;;11.30;85.00;;;;;;5071785;28;20032;-88
2022/11/28 04:55:15;;;;;;;24.20;18.00;;;11.20;85.20;;;;;;5054447;28;20071;-89
2022/11/28 04:57:43;;;;;;;24.02;18.23;;;11.20;85.20;;;;;;5054412;28;20037;-89
2022/11/28 05:00:16;;;;;;;25.63;18.83;;;11.20;85.20;;;;;;5053306;28;20036;-88
2022/11/28 05:02:44;;;;;;;;;;;11.20;85.40;;;;;;5054934;28;20125;-89
2022/11/28 05:05:13;;;;;;;25.20;18.35;;;11.40;85.20;;;;;;5071188;28;19927;-88
2022/11/28 05:07:39;;;;;;;30.13;20.27;;;11.40;84.50;;;;;;5054085;28;20051;-88
2022/11/28 05:10:06;;;;;;;23.38;17.50;;;11.40;84.70;;;;;;5070463;28;20409;-89
2022/11/28 05:12:31;;;;;;;24.27;18.98;;;11.40;85.00;;;;;;5070655;28;20502;-89
2022/11/28 05:14:57;;;;;;;27.50;19.77;;;11.30;85.10;;;;;;5070478;28;20131;-88
2022/11/28 05:17:23;;;;;;;28.60;19.50;;;11.40;85.30;;;;;;5054280;28;20055;-88
2022/11/28 05:19:48;;;;;;;24.75;17.83;;;11.40;85.30;;;;;;5053601;28;20037;-88
2022/11/28 05:22:14;;;;;;;24.98;18.90;;;11.40;85.40;;;;;;5054946;28;20072;-87
2022/11/28 05:24:39;;;;;;;29.63;21.42;;;11.40;85.40;;;;;;5070792;28;20044;-87
2022/11/28 05:27:06;;;;;;;31.55;21.85;;;11.40;85.60;;;;;;5070044;28;20037;-88
2022/11/28 05:29:32;;;;;;;30.25;22.20;;;11.40;85.70;;;;;;5070755;28;20041;-89
2022/11/28 05:31:58;;;;;;;30.55;22.70;;;11.40;86.00;;;;;;5070391;28;20417;-88
2022/11/28 05:34:23;;;;;;;36.50;24.02;;;11.40;86.20;;;;;;5069409;28;20040;-87
2022/11/28 05:36:49;;;;;;;30.17;23.33;;;11.40;86.40;;;;;;5053855;28;20482;-89
2022/11/28 05:39:14;;;;;;;38.95;26.45;;;11.40;86.50;;;;;;5070427;28;20080;-88
2022/11/28 05:41:40;;;;;;;33.55;24.50;;;11.40;86.60;;;;;;5052991;28;20070;-87
2022/11/28 05:44:06;;;;;;;37.10;26.50;;;11.50;86.60;;;;;;5053735;28;20044;-88
2022/11/28 05:46:31;;;;;;;31.58;24.52;;;11.50;86.60;;;;;;5070529;28;20101;-89
2022/11/28 05:48:57;;;;;;;36.17;25.58;;;11.50;86.60;;;;;;5053971;28;20055;-88
2022/11/28 05:51:23;;;;;;;34.03;25.75;;;11.50;86.70;;;;;;5053578;28;20041;-87
2022/11/28 05:53:48;;;;;;;37.47;27.15;;;11.60;86.70;;;;;;5052904;28;20561;-88
2022/11/28 05:56:17;;;;;;;34.20;24.73;;;11.60;86.80;;;;;;5069485;28;20124;-88
2022/11/28 05:58:43;;;;;;;31.92;24.27;;;11.60;86.80;;;;;;5069624;28;20493;-89
2022/11/28 06:01:16;;;;;;;38.53;27.05;;;11.70;86.70;;;;;;5053803;28;20048;-88
2022/11/28 06:03:43;;;;;;;40.17;27.75;;;11.60;86.80;;;;;;5053286;28;20040;-89
2022/11/28 06:06:14;;;;;;;36.50;26.38;;;11.60;86.80;;;;;;5053415;28;21301;-87
2022/11/28 06:08:40;;;;;;;38.08;27.00;;;11.60;86.90;;;;;;5052785;28;20051;-89
2022/11/28 06:11:07;;;;;;;36.72;26.90;;;11.70;86.90;;;;;;5070540;28;20047;-88
2022/11/28 06:13:32;;;;;;;34.33;24.63;;;11.70;86.90;;;;;;5074686;28;20809;-87
2022/11/28 06:15:58;;;;;;;35.83;27.20;;;11.70;86.90;;;;;;5073753;28;20044;-88
2022/11/28 06:18:24;;;;;;;33.03;27.35;;;11.70;87.00;;;;;;5073910;28;20486;-89
2022/11/28 06:20:49;;;;;;;33.78;26.08;;;11.70;87.00;;;;;;5074517;28;20052;-89
2022/11/28 06:23:15;;;;;;;38.85;27.30;;;11.70;86.90;;;;;;5073829;28;20131;-89
2022/11/28 06:25:41;;;;;;;35.35;27.27;;;11.70;87.00;;;;;;5057084;28;20048;-89
2022/11/28 06:28:06;;;;;;;33.22;26.15;;;11.70;87.00;;;;;;5057605;28;20168;-88
2022/11/28 06:30:32;;;;;;;33.75;26.67;;;11.80;87.00;;;;;;5074034;28;20041;-88
2022/11/28 06:32:57;;;;;;;31.95;24.67;;;11.70;87.00;;;;;;5073555;28;20040;-89
2022/11/28 06:35:23;;;;;;;33.53;25.17;;;11.80;87.10;;;;;;5074758;28;20114;-89
2022/11/28 06:37:48;;;;;;;31.30;24.73;;;11.80;87.10;;;;;;5074362;28;20072;-89
2022/11/28 06:40:14;;;;;;;31.88;25.23;;;11.80;87.00;;;;;;5073857;28;20436;-90
2022/11/28 06:42:40;;;;;;;31.83;23.58;;;11.80;87.60;;;;;;5073834;28;20052;-88
2022/11/28 06:45:06;;;;;;;29.13;23.17;;;11.80;86.90;;;;;;5074417;28;20044;-87
2022/11/28 06:47:32;;;;;;;27.50;22.15;;;11.80;86.90;;;;;;5073466;28;20170;-91
2022/11/28 06:49:57;;;;;;;24.85;21.45;;;11.80;86.80;;;;;;5073834;28;20048;-89
2022/11/28 06:52:23;;;;;;;29.83;21.17;;;11.80;86.90;;;;;;5057088;28;20040;-89
2022/11/28 06:54:48;;;;;;;27.35;21.08;;;11.80;86.90;;;;;;5057687;28;20040;-89
2022/11/28 06:57:14;;;;;;;26.73;21.10;;;11.80;86.90;;;;;;5056068;28;20076;-89
2022/11/28 06:59:40;;;;;;;25.45;20.50;;;11.80;87.00;;;;;;5072385;28;20044;-91
2022/11/28 07:02:05;;;;;;;26.30;20.45;;;11.80;87.10;;;;;;5072397;28;20045;-91
2022/11/28 07:04:31;;;;;;;23.17;18.90;;;11.80;87.20;;;;;;5072886;28;20113;-90
2022/11/28 07:06:57;;;;;;;23.70;18.58;;;11.80;87.20;;;;;;5072121;28;20040;-91
2022/11/28 07:09:23;;;;;;;22.50;18.05;;;11.80;87.20;;;;;;5056096;28;20041;-90
2022/11/28 07:11:48;;;;;;;24.17;19.10;;;11.80;87.20;;;;;;5072895;28;20040;-89
2022/11/28 07:14:14;;;;;;;23.17;19.27;;;11.70;87.20;;;;;;5056285;28;20053;-90
2022/11/28 07:16:40;;;;;;;22.92;18.63;;;11.70;87.20;;;;;;5056768;28;20088;-92
2022/11/28 07:19:05;;;;;;;20.98;17.52;;;11.80;87.20;;;;;;5072947;28;20052;-91
2022/11/28 07:21:31;;;;;;;21.40;17.02;;;11.80;87.20;;;;;;5056707;28;20056;-91
2022/11/28 07:23:58;;;;;;;22.63;17.50;;;11.90;87.20;;;;;;5073089;28;20045;-90
2022/11/28 07:26:25;;;;;;;21.20;17.42;;;11.80;87.10;;;;;;5072634;28;20041;-89
2022/11/28 07:28:51;;;;;;;22.40;17.17;;;11.80;87.10;;;;;;5056114;28;20052;-88
2022/11/28 07:31:24;;;;;;;21.35;17.20;;;11.80;87.10;;;;;;5056803;28;20444;-88
2022/11/28 07:33:50;;;;;;;20.60;16.50;;;11.80;87.10;;;;;;5056471;28;20052;-90
2022/11/28 07:36:22;;;;;;;20.35;16.20;;;11.80;87.00;;;;;;5073006;28;20127;-89
2022/11/28 07:38:53;;;;;;;19.33;15.23;;;11.80;87.00;;;;;;5056376;28;20040;-88
2022/11/28 07:41:19;;;;;;;21.05;15.95;;;11.90;87.00;;;;;;5073209;28;20485;-88
2022/11/28 07:43:46;;;;;;;19.92;16.30;;;11.90;86.90;;;;;;5072516;28;20047;-89
2022/11/28 07:46:15;;;;;;;18.90;14.57;;;11.90;87.00;;;;;;5056848;28;20135;-90
2022/11/28 07:48:41;;;;;;;20.73;16.15;;;11.90;87.00;;;;;;5074087;28;20045;-91
2022/11/28 07:51:10;;;;;;;17.85;14.95;;;11.90;87.00;;;;;;5074188;28;20041;-91
2022/11/28 07:53:36;;;;;;;18.70;15.07;;;11.90;87.00;;;;;;5073115;28;20044;-91
2022/11/28 07:56:08;;;;;;;19.08;15.50;;;11.90;87.00;;;;;;5054882;28;20405;-90
2022/11/28 07:58:34;;;;;;;23.10;16.05;;;11.80;87.00;;;;;;5054507;28;20055;-90
2022/11/28 08:01:08;;;;;;;19.00;15.40;;;11.90;87.00;;;;;;5054022;28;20719;-91
2022/11/28 08:03:33;;;;;;;19.63;14.88;;;11.80;87.20;;;;;;5054599;28;20048;-91
2022/11/28 08:06:00;;;;;;;22.67;15.98;;;11.80;87.20;;;;;;5054710;28;20049;-91
2022/11/28 08:08:26;;;;;;;20.27;16.08;;;11.80;87.40;;;;;;5052831;28;20079;-92
2022/11/28 08:10:57;;;;;;;20.13;16.48;;;11.80;87.50;;;;;;5052801;28;20041;-91
2022/11/28 08:13:23;;;;;;;18.67;16.08;;;11.70;87.50;;;;;;5068607;28;20044;-91
2022/11/28 08:15:48;;;;;;;19.83;15.80;;;11.80;87.60;;;;;;5051966;28;20049;-91
2022/11/28 08:18:14;;;;;;;20.30;16.58;;;11.80;87.60;;;;;;5052498;28;20053;-89
2022/11/28 08:20:40;;;;;;;20.58;16.63;;;11.80;88.20;;;;;;5070895;28;20036;-90
2022/11/28 08:23:06;;;;;;;24.10;17.92;;;11.80;87.60;;;;;;5059835;28;20047;-91
2022/11/28 08:25:32;;;;;;;18.67;15.38;;;11.80;87.50;;;;;;5077995;28;20045;-89
2022/11/28 08:27:58;;;;;;;20.63;17.00;;;11.80;87.50;;;;;;5060782;28;20503;-89
2022/11/28 08:30:24;;;;;;;21.20;16.95;;;11.90;87.50;;;;;;5060224;28;20076;-90
2022/11/28 08:32:50;;;;;;;22.08;16.30;;;11.90;87.50;;;;;;5058978;28;20041;-91
2022/11/28 08:35:16;;;;;;;22.15;17.63;;;11.80;87.50;;;;;;5058590;28;20040;-90
2022/11/28 08:37:41;;;;;;;19.45;16.30;;;11.80;87.60;;;;;;5059661;28;20059;-90
2022/11/28 08:40:07;;;;;;;19.88;17.50;;;11.80;87.70;;;;;;5075038;28;20040;-89
2022/11/28 08:42:33;;;;;;;25.05;18.70;;;11.80;87.80;;;;;;5075171;28;20084;-88
2022/11/28 08:44:59;;;;;;;24.67;18.30;;;11.80;87.90;;;;;;5074182;28;20044;-88
2022/11/28 08:47:25;;;;;;;25.60;19.17;;;11.80;87.90;;;;;;5058449;28;20093;-88
2022/11/28 08:49:50;;;;;;;22.45;18.55;;;11.70;88.00;;;;;;5073876;28;20079;-90
2022/11/28 08:52:16;;;;;;;24.92;19.70;;;11.70;88.20;;;;;;5062002;28;20459;-90
2022/11/28 08:54:42;;;;;;;26.70;20.45;;;11.70;88.30;;;;;;5064139;28;20080;-91
2022/11/28 08:57:08;;;;;;;25.23;18.90;;;11.70;88.40;;;;;;5074337;28;20048;-88
2022/11/28 08:59:34;;;;;;;131.20;89.80;;;11.70;88.30;;;;;;5056697;28;20087;-87
2022/11/28 09:02:01;;;;;;;36.17;28.52;;;11.70;88.40;;;;;;5073418;28;20417;-89
2022/11/28 09:04:27;;;;;;;24.55;20.15;;;11.70;88.40;;;;;;5056938;28;20041;-89
2022/11/28 09:06:53;;;;;;;24.67;20.13;;;11.70;88.30;;;;;;5073669;28;20081;-89
2022/11/28 09:09:18;;;;;;;25.50;20.42;;;11.80;88.30;;;;;;5057478;28;20048;-90
2022/11/28 09:11:44;;;;;;;28.20;21.30;;;11.80;88.40;;;;;;5075302;28;20055;-88
2022/11/28 09:14:10;;;;;;;26.65;21.10;;;11.80;88.40;;;;;;5055663;28;20045;-87
2022/11/28 09:16:42;;;;;;;30.45;21.45;;;11.80;88.30;;;;;;5070738;28;20102;-89
2022/11/28 09:19:09;;;;;;;23.57;19.20;;;11.70;88.40;;;;;;5056126;28;20044;-89
2022/11/28 09:21:36;;;;;;;24.67;20.30;;;11.80;88.20;;;;;;5056107;28;20041;-89
2022/11/28 09:24:01;;;;;;;28.05;22.58;;;11.80;88.30;;;;;;5072912;28;20040;-90
2022/11/28 09:26:28;;;;;;;27.30;21.45;;;11.80;88.20;;;;;;5056110;28;20045;-89
2022/11/28 09:28:57;;;;;;;26.80;20.70;;;11.80;88.20;;;;;;5056570;28;20400;-91
2022/11/28 09:31:23;;;;;;;29.33;22.10;;;11.80;88.30;;;;;;5057364;28;20041;-90
2022/11/28 09:33:49;;;;;;;26.30;20.27;;;11.80;88.30;;;;;;5073252;28;20040;-91
2022/11/28 09:36:20;;;;;;;29.52;23.33;;;11.90;88.30;;;;;;5071785;28;20063;-88
2022/11/28 09:38:46;;;;;;;28.83;22.52;;;11.80;88.20;;;;;;5055463;28;20440;-89
2022/11/28 09:41:37;;;;;;;26.45;20.98;;;11.80;88.20;;;;;;5071818;28;20048;-89
2022/11/28 09:44:08;;;;;;;25.42;19.92;;;11.70;88.50;;;;;;5071348;28;20482;-88
2022/11/28 09:46:35;;;;;;;24.38;19.02;;;11.80;88.30;;;;;;5051674;28;20087;-85
2022/11/28 09:49:13;;;;;;;26.27;20.05;;;11.90;88.20;;;;;;5068005;28;20090;-87
2022/11/28 09:51:51;;;;;;;25.80;19.58;;;11.90;88.20;;;;;;5067864;28;20489;-87
2022/11/28 09:54:31;;;;;;;26.05;19.40;;;11.80;88.20;;;;;;5068071;28;20414;-88
2022/11/28 09:56:59;;;;;;;25.92;19.75;;;11.90;88.20;;;;;;5067757;28;20494;-87
2022/11/28 09:59:29;;;;;;;24.23;19.42;;;11.90;88.20;;;;;;5067899;28;20048;-86
2022/11/28 10:01:57;;;;;;;23.13;17.58;;;11.80;88.90;;;;;;5067746;28;20056;-87
2022/11/28 10:04:39;;;;;;;26.30;19.55;;;11.90;88.40;;;;;;5067620;28;20044;-88
2022/11/28 10:07:18;;;;;;;24.33;18.13;;;11.90;88.50;;;;;;5067616;28;20060;-88
2022/11/28 10:10:32;;;;;;;26.77;19.00;;;11.80;88.70;;;;;;5068352;28;20044;-88
2022/11/28 10:13:19;;;;;;;24.17;18.40;;;11.80;88.80;;;;;;5068760;28;20044;-88
2022/11/28 10:15:54;;;;;;;22.63;18.25;;;11.90;88.30;;;;;;5067971;28;20052;-89
2022/11/28 10:19:03;;;;;;;23.55;17.98;;;11.80;88.40;;;;;;5068015;28;20521;-89
2022/11/28 10:21:37;;;;;;;22.13;17.48;;;11.80;88.80;;;;;;5022907;28;20056;-88
2022/11/28 10:24:13;;;;;;;22.42;17.50;;;11.90;88.40;;;;;;5067525;28;20052;-89
2022/11/28 10:26:51;;;;;;;21.00;17.65;;;11.90;88.50;;;;;;5067650;28;20055;-90
2022/11/28 10:29:28;;;;;;;23.30;17.38;;;11.80;88.50;;;;;;5051392;28;20124;-89
2022/11/28 10:31:56;;;;;;;23.38;17.40;;;11.90;88.40;;;;;;5072635;28;20078;-88
2022/11/28 10:34:32;;;;;;;21.50;17.42;;;11.90;88.30;;;;;;5060454;28;20476;-88
2022/11/28 10:37:14;;;;;;;23.35;17.90;;;11.90;88.40;;;;;;5076245;28;20048;-87
2022/11/28 10:39:43;;;;;;;21.45;17.80;;;11.90;88.30;;;;;;5082090;28;20123;-88
2022/11/28 10:42:40;;;;;;;21.55;17.60;;;11.90;88.20;;;;;;5070887;28;20051;-88
2022/11/28 10:45:21;;;;;;;21.98;17.13;;;11.90;89.20;;;;;;5087810;28;20052;-87
2022/11/28 10:48:15;;;;;;;20.42;16.38;;;11.90;88.30;;;;;;5070606;28;20059;-88
2022/11/28 10:50:57;;;;;;;20.60;17.10;;;11.90;88.60;;;;;;5087007;28;20067;-90
2022/11/28 10:54:00;;;;;;;25.95;21.27;;;11.90;88.40;;;;;;5087228;28;20048;-87
2022/11/28 10:57:04;;;;;;;23.27;20.17;;;11.90;88.60;;;;;;5070405;28;20052;-88
2022/11/28 10:59:57;;;;;;;19.45;16.55;;;11.90;88.40;;;;;;5090389;28;20492;-89
2022/11/28 11:02:47;;;;;;;22.48;17.40;;;12.00;88.30;;;;;;5090768;28;20109;-86
2022/11/28 11:05:17;;;;;;;20.08;16.38;;;12.00;88.20;;;;;;5091705;28;20108;-88
2022/11/28 11:07:48;;;;;;;21.63;17.63;;;12.00;88.00;;;;;;5074110;28;20044;-86
2022/11/28 11:10:15;;;;;;;19.77;16.30;;;12.00;88.10;;;;;;5074312;28;20048;-88
2022/11/28 11:12:42;;;;;;;20.45;17.95;;;12.00;88.10;;;;;;5091016;28;20169;-88
2022/11/28 11:15:18;;;;;;;20.45;17.25;;;12.10;88.20;;;;;;5090785;28;20526;-87
2022/11/28 11:17:44;;;;;;;20.58;15.75;;;12.00;88.30;;;;;;5073338;28;20052;-87
2022/11/28 11:20:37;;;;;;;20.05;16.45;;;12.10;88.10;;;;;;5073685;28;20188;-88
2022/11/28 11:23:19;;;;;;;21.42;16.83;;;12.00;88.20;;;;;;5090180;28;20059;-87
2022/11/28 11:25:57;;;;;;;18.27;16.20;;;12.00;88.10;;;;;;5073193;28;20048;-87
2022/11/28 11:28:44;;;;;;;22.73;17.42;;;12.00;88.10;;;;;;5073265;28;20044;-87
2022/11/28 11:31:37;;;;;;;22.38;17.45;;;12.10;88.20;;;;;;5090620;28;20040;-87
2022/11/28 11:34:14;;;;;;;19.10;16.65;;;12.10;87.90;;;;;;5073199;28;20059;-86
2022/11/28 11:36:40;;;;;;;22.52;17.23;;;12.10;87.90;;;;;;5073832;28;20744;-87
2022/11/28 11:39:09;;;;;;;20.15;16.30;;;12.20;87.70;;;;;;5090961;28;20135;-88
2022/11/28 11:41:35;;;;;;;20.50;16.83;;;12.20;87.70;;;;;;5073682;28;20052;-87
2022/11/28 11:44:24;;;;;;;19.65;16.85;;;12.30;87.70;;;;;;5090666;28;20085;-86
2022/11/28 11:46:51;;;;;;;22.55;17.90;;;12.20;87.80;;;;;;5091063;28;20104;-88
2022/11/28 11:49:32;;;;;;;21.73;16.95;;;12.30;87.40;;;;;;5090263;28;20044;-88
2022/11/28 11:52:00;;;;;;;22.85;18.13;;;12.30;87.50;;;;;;5073937;28;20481;-88
2022/11/28 11:54:26;;;;;;;20.80;17.90;;;12.40;87.20;;;;;;5090443;28;20048;-88
2022/11/28 11:56:52;;;;;;;27.58;23.33;;;12.40;87.20;;;;;;5073451;28;20051;-88
2022/11/28 11:59:37;;;;;;;54.03;41.25;;;12.40;87.20;;;;;;5090553;28;20131;-87
2022/11/28 12:02:21;;;;;;;22.73;18.05;;;12.30;87.50;;;;;;5073557;28;20055;-86
2022/11/28 12:04:54;;;;;;;25.15;18.58;;;12.40;87.40;;;;;;5090597;28;20105;-90
2022/11/28 12:07:37;;;;;;;;;;;12.40;87.30;;;;;;5074251;28;20048;-89
2022/11/28 12:10:04;;;;;;;20.27;16.67;;;12.60;87.10;;;;;;5089384;28;19971;-89
2022/11/28 12:12:33;;;;;;;22.83;18.15;;;12.70;86.40;;;;;;5090309;28;20052;-89
2022/11/28 12:14:58;;;;;;;23.58;18.35;;;12.50;86.60;;;;;;5090391;28;20044;-88
2022/11/28 12:17:57;;;;;;;21.48;18.02;;;12.50;86.70;;;;;;5090018;28;20085;-88
2022/11/28 12:20:41;;;;;;;19.90;16.88;;;12.40;87.00;;;;;;5090811;28;20480;-89
2022/11/28 12:23:38;;;;;;;21.35;17.02;;;12.40;87.20;;;;;;5089885;28;20056;-89
2022/11/28 12:26:22;;;;;;;20.73;17.35;;;12.30;87.30;;;;;;5090214;28;20127;-88
2022/11/28 12:29:24;;;;;;;25.08;17.45;;;12.30;87.20;;;;;;5090130;28;20171;-88
2022/11/28 12:32:30;;;;;;;19.55;16.65;;;12.30;87.30;;;;;;5073443;28;20055;-88
2022/11/28 12:35:34;;;;;;;24.60;18.10;;;12.40;87.50;;;;;;5090283;28;20048;-87
2022/11/28 12:38:03;;;;;;;20.02;16.00;;;12.40;87.40;;;;;;5073147;28;20048;-89
2022/11/28 12:40:40;;;;;;;21.40;16.88;;;12.50;87.00;;;;;;5073209;28;20054;-89
2022/11/28 12:43:17;;;;;;;22.75;18.05;;;12.40;87.20;;;;;;5072967;28;20044;-88
2022/11/28 12:46:00;;;;;;;21.73;18.02;;;12.40;87.30;;;;;;5072991;28;20051;-87
2022/11/28 12:48:40;;;;;;;20.63;16.87;;;12.50;87.20;;;;;;5073209;28;20526;-87
2022/11/28 12:51:25;;;;;;;22.45;17.35;;;12.60;86.90;;;;;;5089634;28;20493;-88
2022/11/28 12:54:10;;;;;;;18.80;16.50;;;12.60;86.60;;;;;;5090087;28;20040;-88
2022/11/28 12:57:09;;;;;;;21.65;17.70;;;12.50;86.90;;;;;;5072511;28;20135;-88
2022/11/28 12:59:42;;;;;;;20.92;17.35;;;12.50;86.90;;;;;;5072520;28;20032;-87